sensor_id;sensor_type;location;lat;lon;timestamp;P1;durP1;ratioP1;P2;durP2;ratioP2
21862;SDS011;11096;51.338;12.524;2023-05-29T00:01:31;8.70;;;6.13;;
21862;SDS011;11096;51.338;12.524;2023-05-29T00:03:56;9.52;;;6.53;;
21862;SDS011;11096;51.338;12.524;2023-05-29T00:06:22;9.93;;;6.05;;
21862;SDS011;11096;51.338;12.524;2023-05-29T00:08:47;10.32;;;6.07;;
21862;SDS011;11096;51.338;12.524;2023-05-29T00:11:12;12.65;;;5.82;;
21862;SDS011;11096;51.338;12.524;2023-05-29T00:13:38;9.77;;;6.00;;
21862;SDS011;11096;51.338;12.524;2023-05-29T00:16:04;11.35;;;5.70;;
21862;SDS011;11096;51.338;12.524;2023-05-29T00:18:29;11.88;;;5.70;;
21862;SDS011;11096;51.338;12.524;2023-05-29T00:20:55;7.93;;;5.85;;
21862;SDS011;11096;51.338;12.524;2023-05-29T00:23:20;10.27;;;6.00;;
21862;SDS011;11096;51.338;12.524;2023-05-29T00:25:46;10.77;;;6.38;;
21862;SDS011;11096;51.338;12.524;2023-05-29T00:28:12;10.30;;;6.63;;
21862;SDS011;11096;51.338;12.524;2023-05-29T00:30:38;12.93;;;6.40;;
21862;SDS011;11096;51.338;12.524;2023-05-29T00:33:04;11.82;;;6.75;;
21862;SDS011;11096;51.338;12.524;2023-05-29T00:35:29;9.90;;;6.45;;
21862;SDS011;11096;51.338;12.524;2023-05-29T00:37:55;12.63;;;6.88;;
21862;SDS011;11096;51.338;12.524;2023-05-29T00:40:20;11.82;;;6.60;;
21862;SDS011;11096;51.338;12.524;2023-05-29T00:42:46;11.85;;;6.20;;
21862;SDS011;11096;51.338;12.524;2023-05-29T00:45:11;8.70;;;5.40;;
21862;SDS011;11096;51.338;12.524;2023-05-29T00:47:38;6.15;;;4.65;;
21862;SDS011;11096;51.338;12.524;2023-05-29T00:50:05;5.47;;;3.95;;
21862;SDS011;11096;51.338;12.524;2023-05-29T00:52:32;7.68;;;4.05;;
21862;SDS011;11096;51.338;12.524;2023-05-29T00:54:58;10.07;;;4.75;;
21862;SDS011;11096;51.338;12.524;2023-05-29T00:57:26;9.48;;;4.47;;
21862;SDS011;11096;51.338;12.524;2023-05-29T00:59:51;8.77;;;4.50;;
21862;SDS011;11096;51.338;12.524;2023-05-29T01:02:17;6.78;;;4.70;;
21862;SDS011;11096;51.338;12.524;2023-05-29T01:04:45;8.52;;;4.32;;
21862;SDS011;11096;51.338;12.524;2023-05-29T01:07:10;7.07;;;4.80;;
21862;SDS011;11096;51.338;12.524;2023-05-29T01:09:36;7.13;;;4.28;;
21862;SDS011;11096;51.338;12.524;2023-05-29T01:29:14;9.20;;;3.78;;
21862;SDS011;11096;51.338;12.524;2023-05-29T01:31:42;5.85;;;3.58;;
21862;SDS011;11096;51.338;12.524;2023-05-29T01:34:10;6.25;;;3.50;;
21862;SDS011;11096;51.338;12.524;2023-05-29T01:36:35;6.97;;;3.88;;
21862;SDS011;11096;51.338;12.524;2023-05-29T01:39:01;7.50;;;3.92;;
21862;SDS011;11096;51.338;12.524;2023-05-29T01:41:27;5.75;;;3.30;;
21862;SDS011;11096;51.338;12.524;2023-05-29T01:43:54;5.60;;;3.67;;
21862;SDS011;11096;51.338;12.524;2023-05-29T01:46:22;5.38;;;3.58;;
21862;SDS011;11096;51.338;12.524;2023-05-29T01:48:50;5.55;;;3.53;;
21862;SDS011;11096;51.338;12.524;2023-05-29T01:51:16;10.10;;;4.85;;
21862;SDS011;11096;51.338;12.524;2023-05-29T01:53:42;6.70;;;4.43;;
21862;SDS011;11096;51.338;12.524;2023-05-29T01:56:08;6.85;;;4.07;;
21862;SDS011;11096;51.338;12.524;2023-05-29T01:58:34;11.20;;;5.05;;
21862;SDS011;11096;51.338;12.524;2023-05-29T02:01:01;7.35;;;4.78;;
21862;SDS011;11096;51.338;12.524;2023-05-29T02:03:29;6.63;;;4.32;;
21862;SDS011;11096;51.338;12.524;2023-05-29T02:05:55;5.82;;;4.03;;
21862;SDS011;11096;51.338;12.524;2023-05-29T02:08:21;6.60;;;4.15;;
21862;SDS011;11096;51.338;12.524;2023-05-29T02:10:47;9.30;;;4.65;;
21862;SDS011;11096;51.338;12.524;2023-05-29T02:13:12;5.97;;;4.13;;
21862;SDS011;11096;51.338;12.524;2023-05-29T02:15:38;7.10;;;3.95;;
21862;SDS011;11096;51.338;12.524;2023-05-29T02:18:03;7.88;;;4.22;;
21862;SDS011;11096;51.338;12.524;2023-05-29T02:20:29;6.35;;;3.55;;
21862;SDS011;11096;51.338;12.524;2023-05-29T02:22:54;5.32;;;4.05;;
21862;SDS011;11096;51.338;12.524;2023-05-29T02:25:20;5.82;;;4.28;;
21862;SDS011;11096;51.338;12.524;2023-05-29T02:27:45;5.30;;;3.92;;
21862;SDS011;11096;51.338;12.524;2023-05-29T02:30:11;7.03;;;4.00;;
21862;SDS011;11096;51.338;12.524;2023-05-29T02:32:36;10.25;;;4.15;;
21862;SDS011;11096;51.338;12.524;2023-05-29T02:35:02;5.32;;;3.78;;
21862;SDS011;11096;51.338;12.524;2023-05-29T02:37:28;9.43;;;4.15;;
21862;SDS011;11096;51.338;12.524;2023-05-29T02:39:54;6.50;;;3.85;;
21862;SDS011;11096;51.338;12.524;2023-05-29T02:42:19;6.97;;;3.83;;
21862;SDS011;11096;51.338;12.524;2023-05-29T02:44:45;7.38;;;3.92;;
21862;SDS011;11096;51.338;12.524;2023-05-29T02:47:10;5.53;;;3.63;;
21862;SDS011;11096;51.338;12.524;2023-05-29T02:49:36;7.97;;;4.55;;
21862;SDS011;11096;51.338;12.524;2023-05-29T02:52:01;5.20;;;3.88;;
21862;SDS011;11096;51.338;12.524;2023-05-29T02:54:26;5.68;;;3.60;;
21862;SDS011;11096;51.338;12.524;2023-05-29T02:56:52;7.68;;;4.32;;
21862;SDS011;11096;51.338;12.524;2023-05-29T02:59:18;7.18;;;3.95;;
21862;SDS011;11096;51.338;12.524;2023-05-29T03:01:43;6.20;;;3.72;;
21862;SDS011;11096;51.338;12.524;2023-05-29T03:04:11;5.65;;;4.03;;
21862;SDS011;11096;51.338;12.524;2023-05-29T03:06:37;5.75;;;3.83;;
21862;SDS011;11096;51.338;12.524;2023-05-29T03:09:03;5.43;;;4.03;;
21862;SDS011;11096;51.338;12.524;2023-05-29T03:11:30;6.53;;;4.45;;
21862;SDS011;11096;51.338;12.524;2023-05-29T03:14:00;6.95;;;4.60;;
21862;SDS011;11096;51.338;12.524;2023-05-29T03:16:26;6.47;;;4.28;;
21862;SDS011;11096;51.338;12.524;2023-05-29T03:18:54;6.82;;;4.50;;
21862;SDS011;11096;51.338;12.524;2023-05-29T03:21:20;5.07;;;3.90;;
21862;SDS011;11096;51.338;12.524;2023-05-29T03:23:46;7.65;;;4.70;;
21862;SDS011;11096;51.338;12.524;2023-05-29T03:26:12;5.90;;;3.90;;
21862;SDS011;11096;51.338;12.524;2023-05-29T03:28:38;7.50;;;4.57;;
21862;SDS011;11096;51.338;12.524;2023-05-29T03:31:04;7.82;;;4.63;;
21862;SDS011;11096;51.338;12.524;2023-05-29T03:33:29;9.48;;;4.55;;
21862;SDS011;11096;51.338;12.524;2023-05-29T03:35:55;6.35;;;4.10;;
21862;SDS011;11096;51.338;12.524;2023-05-29T03:38:21;6.45;;;4.45;;
21862;SDS011;11096;51.338;12.524;2023-05-29T03:40:46;7.72;;;4.88;;
21862;SDS011;11096;51.338;12.524;2023-05-29T03:43:12;7.90;;;4.25;;
21862;SDS011;11096;51.338;12.524;2023-05-29T03:45:37;6.65;;;4.10;;
21862;SDS011;11096;51.338;12.524;2023-05-29T03:48:02;9.15;;;4.80;;
21862;SDS011;11096;51.338;12.524;2023-05-29T03:50:28;7.93;;;4.78;;
21862;SDS011;11096;51.338;12.524;2023-05-29T03:52:53;9.43;;;4.65;;
21862;SDS011;11096;51.338;12.524;2023-05-29T03:55:19;9.30;;;4.82;;
21862;SDS011;11096;51.338;12.524;2023-05-29T03:57:44;6.40;;;4.78;;
21862;SDS011;11096;51.338;12.524;2023-05-29T04:00:10;8.00;;;4.38;;
21862;SDS011;11096;51.338;12.524;2023-05-29T04:02:40;9.82;;;4.30;;
21862;SDS011;11096;51.338;12.524;2023-05-29T04:05:06;6.00;;;4.45;;
21862;SDS011;11096;51.338;12.524;2023-05-29T04:07:32;8.70;;;4.60;;
21862;SDS011;11096;51.338;12.524;2023-05-29T04:09:58;10.15;;;4.35;;
21862;SDS011;11096;51.338;12.524;2023-05-29T04:12:23;10.60;;;4.93;;
21862;SDS011;11096;51.338;12.524;2023-05-29T04:14:49;7.55;;;4.70;;
21862;SDS011;11096;51.338;12.524;2023-05-29T04:17:14;6.45;;;4.40;;
21862;SDS011;11096;51.338;12.524;2023-05-29T04:19:40;7.93;;;4.90;;
21862;SDS011;11096;51.338;12.524;2023-05-29T04:22:05;10.50;;;5.13;;
21862;SDS011;11096;51.338;12.524;2023-05-29T04:24:31;7.53;;;4.35;;
21862;SDS011;11096;51.338;12.524;2023-05-29T04:27:00;9.65;;;4.88;;
21862;SDS011;11096;51.338;12.524;2023-05-29T04:29:27;9.57;;;4.10;;
21862;SDS011;11096;51.338;12.524;2023-05-29T04:31:53;10.25;;;4.85;;
21862;SDS011;11096;51.338;12.524;2023-05-29T04:34:20;8.35;;;5.00;;
21862;SDS011;11096;51.338;12.524;2023-05-29T04:36:47;7.95;;;4.63;;
21862;SDS011;11096;51.338;12.524;2023-05-29T04:39:13;11.00;;;5.10;;
21862;SDS011;11096;51.338;12.524;2023-05-29T04:41:42;7.93;;;4.80;;
21862;SDS011;11096;51.338;12.524;2023-05-29T04:44:07;6.28;;;4.55;;
21862;SDS011;11096;51.338;12.524;2023-05-29T04:46:35;7.13;;;4.88;;
21862;SDS011;11096;51.338;12.524;2023-05-29T04:49:00;7.70;;;4.88;;
21862;SDS011;11096;51.338;12.524;2023-05-29T04:51:27;7.95;;;4.65;;
21862;SDS011;11096;51.338;12.524;2023-05-29T04:53:55;9.27;;;5.05;;
21862;SDS011;11096;51.338;12.524;2023-05-29T04:56:20;7.75;;;4.63;;
21862;SDS011;11096;51.338;12.524;2023-05-29T04:58:47;7.28;;;4.70;;
21862;SDS011;11096;51.338;12.524;2023-05-29T05:01:12;6.88;;;4.78;;
21862;SDS011;11096;51.338;12.524;2023-05-29T05:03:39;7.28;;;4.18;;
21862;SDS011;11096;51.338;12.524;2023-05-29T05:06:05;8.45;;;4.50;;
21862;SDS011;11096;51.338;12.524;2023-05-29T05:08:32;9.63;;;5.10;;
21862;SDS011;11096;51.338;12.524;2023-05-29T05:10:59;9.88;;;4.43;;
21862;SDS011;11096;51.338;12.524;2023-05-29T05:13:25;6.30;;;4.65;;
21862;SDS011;11096;51.338;12.524;2023-05-29T05:15:51;8.00;;;4.55;;
21862;SDS011;11096;51.338;12.524;2023-05-29T05:18:17;7.82;;;4.43;;
21862;SDS011;11096;51.338;12.524;2023-05-29T05:20:42;7.35;;;4.47;;
21862;SDS011;11096;51.338;12.524;2023-05-29T05:23:07;8.10;;;3.90;;
21862;SDS011;11096;51.338;12.524;2023-05-29T05:25:34;9.07;;;4.65;;
21862;SDS011;11096;51.338;12.524;2023-05-29T05:28:00;8.10;;;4.90;;
21862;SDS011;11096;51.338;12.524;2023-05-29T05:30:28;7.30;;;5.20;;
21862;SDS011;11096;51.338;12.524;2023-05-29T05:32:53;12.02;;;4.60;;
21862;SDS011;11096;51.338;12.524;2023-05-29T05:35:19;8.65;;;4.53;;
21862;SDS011;11096;51.338;12.524;2023-05-29T05:37:45;8.20;;;4.63;;
21862;SDS011;11096;51.338;12.524;2023-05-29T05:40:11;12.43;;;4.07;;
21862;SDS011;11096;51.338;12.524;2023-05-29T05:42:37;10.88;;;5.20;;
21862;SDS011;11096;51.338;12.524;2023-05-29T05:45:03;11.23;;;4.47;;
21862;SDS011;11096;51.338;12.524;2023-05-29T05:47:29;8.77;;;4.25;;
21862;SDS011;11096;51.338;12.524;2023-05-29T05:49:54;8.32;;;4.43;;
21862;SDS011;11096;51.338;12.524;2023-05-29T05:52:20;9.45;;;4.57;;
21862;SDS011;11096;51.338;12.524;2023-05-29T05:54:46;8.52;;;4.38;;
21862;SDS011;11096;51.338;12.524;2023-05-29T05:57:11;8.65;;;4.35;;
21862;SDS011;11096;51.338;12.524;2023-05-29T05:59:37;13.57;;;4.90;;
21862;SDS011;11096;51.338;12.524;2023-05-29T06:02:02;9.43;;;4.55;;
21862;SDS011;11096;51.338;12.524;2023-05-29T06:04:28;9.25;;;4.97;;
21862;SDS011;11096;51.338;12.524;2023-05-29T06:06:54;10.18;;;4.45;;
21862;SDS011;11096;51.338;12.524;2023-05-29T06:09:20;9.45;;;4.90;;
21862;SDS011;11096;51.338;12.524;2023-05-29T06:11:46;8.75;;;4.78;;
21862;SDS011;11096;51.338;12.524;2023-05-29T06:14:12;11.40;;;4.95;;
21862;SDS011;11096;51.338;12.524;2023-05-29T06:16:38;8.18;;;3.97;;
21862;SDS011;11096;51.338;12.524;2023-05-29T06:19:04;14.07;;;4.95;;
21862;SDS011;11096;51.338;12.524;2023-05-29T06:21:29;8.52;;;4.68;;
21862;SDS011;11096;51.338;12.524;2023-05-29T06:23:55;8.63;;;4.32;;
21862;SDS011;11096;51.338;12.524;2023-05-29T06:26:20;8.73;;;4.57;;
21862;SDS011;11096;51.338;12.524;2023-05-29T06:28:46;9.70;;;4.80;;
21862;SDS011;11096;51.338;12.524;2023-05-29T06:31:11;10.93;;;4.57;;
21862;SDS011;11096;51.338;12.524;2023-05-29T06:33:37;13.18;;;5.30;;
21862;SDS011;11096;51.338;12.524;2023-05-29T06:36:03;12.82;;;4.90;;
21862;SDS011;11096;51.338;12.524;2023-05-29T06:38:28;8.63;;;4.60;;
21862;SDS011;11096;51.338;12.524;2023-05-29T06:40:54;9.05;;;4.18;;
21862;SDS011;11096;51.338;12.524;2023-05-29T06:43:19;9.80;;;4.40;;
21862;SDS011;11096;51.338;12.524;2023-05-29T06:45:44;8.02;;;4.53;;
21862;SDS011;11096;51.338;12.524;2023-05-29T06:48:10;8.45;;;4.30;;
21862;SDS011;11096;51.338;12.524;2023-05-29T06:50:35;9.10;;;4.28;;
21862;SDS011;11096;51.338;12.524;2023-05-29T06:53:01;8.20;;;4.47;;
21862;SDS011;11096;51.338;12.524;2023-05-29T06:55:26;11.68;;;4.50;;
21862;SDS011;11096;51.338;12.524;2023-05-29T06:57:52;12.10;;;4.97;;
21862;SDS011;11096;51.338;12.524;2023-05-29T07:00:17;8.30;;;4.32;;
21862;SDS011;11096;51.338;12.524;2023-05-29T07:02:43;11.13;;;4.07;;
21862;SDS011;11096;51.338;12.524;2023-05-29T07:05:08;13.55;;;4.80;;
21862;SDS011;11096;51.338;12.524;2023-05-29T07:07:34;12.57;;;4.82;;
21862;SDS011;11096;51.338;12.524;2023-05-29T07:09:59;9.77;;;4.38;;
21862;SDS011;11096;51.338;12.524;2023-05-29T07:12:25;13.00;;;4.75;;
21862;SDS011;11096;51.338;12.524;2023-05-29T07:14:51;9.15;;;4.78;;
21862;SDS011;11096;51.338;12.524;2023-05-29T07:17:17;8.52;;;4.32;;
21862;SDS011;11096;51.338;12.524;2023-05-29T07:19:42;8.20;;;4.63;;
21862;SDS011;11096;51.338;12.524;2023-05-29T07:22:08;13.73;;;4.40;;
21862;SDS011;11096;51.338;12.524;2023-05-29T07:24:33;9.10;;;4.20;;
21862;SDS011;11096;51.338;12.524;2023-05-29T07:27:00;9.15;;;4.40;;
21862;SDS011;11096;51.338;12.524;2023-05-29T07:29:25;8.63;;;4.65;;
21862;SDS011;11096;51.338;12.524;2023-05-29T07:31:51;10.25;;;4.72;;
21862;SDS011;11096;51.338;12.524;2023-05-29T07:34:16;10.88;;;4.80;;
21862;SDS011;11096;51.338;12.524;2023-05-29T07:37:01;11.60;;;4.30;;
21862;SDS011;11096;51.338;12.524;2023-05-29T07:39:28;8.82;;;4.03;;
21862;SDS011;11096;51.338;12.524;2023-05-29T07:41:54;9.52;;;3.88;;
21862;SDS011;11096;51.338;12.524;2023-05-29T07:44:20;10.50;;;4.63;;
21862;SDS011;11096;51.338;12.524;2023-05-29T07:46:45;6.95;;;3.60;;
21862;SDS011;11096;51.338;12.524;2023-05-29T07:49:11;9.02;;;3.80;;
21862;SDS011;11096;51.338;12.524;2023-05-29T07:51:37;8.35;;;4.07;;
21862;SDS011;11096;51.338;12.524;2023-05-29T07:54:02;8.88;;;3.90;;
21862;SDS011;11096;51.338;12.524;2023-05-29T07:56:28;9.38;;;3.72;;
21862;SDS011;11096;51.338;12.524;2023-05-29T07:58:54;9.70;;;3.92;;
21862;SDS011;11096;51.338;12.524;2023-05-29T08:01:21;7.97;;;4.20;;
21862;SDS011;11096;51.338;12.524;2023-05-29T08:03:47;7.93;;;4.03;;
21862;SDS011;11096;51.338;12.524;2023-05-29T08:06:12;9.95;;;3.55;;
21862;SDS011;11096;51.338;12.524;2023-05-29T08:08:38;7.05;;;3.80;;
21862;SDS011;11096;51.338;12.524;2023-05-29T08:11:03;6.57;;;3.50;;
21862;SDS011;11096;51.338;12.524;2023-05-29T08:13:30;9.02;;;3.63;;
21862;SDS011;11096;51.338;12.524;2023-05-29T08:15:56;10.60;;;3.35;;
21862;SDS011;11096;51.338;12.524;2023-05-29T08:18:24;9.95;;;3.47;;
21862;SDS011;11096;51.338;12.524;2023-05-29T08:20:50;6.57;;;3.53;;
21862;SDS011;11096;51.338;12.524;2023-05-29T08:23:16;11.35;;;4.70;;
21862;SDS011;11096;51.338;12.524;2023-05-29T08:25:42;6.35;;;3.20;;
21862;SDS011;11096;51.338;12.524;2023-05-29T08:28:07;12.18;;;3.40;;
21862;SDS011;11096;51.338;12.524;2023-05-29T08:30:32;8.95;;;3.55;;
21862;SDS011;11096;51.338;12.524;2023-05-29T08:32:58;11.13;;;3.55;;
21862;SDS011;11096;51.338;12.524;2023-05-29T08:35:23;11.07;;;3.70;;
21862;SDS011;11096;51.338;12.524;2023-05-29T08:37:48;6.93;;;2.97;;
21862;SDS011;11096;51.338;12.524;2023-05-29T08:40:14;8.05;;;3.20;;
21862;SDS011;11096;51.338;12.524;2023-05-29T08:42:46;6.00;;;2.85;;
21862;SDS011;11096;51.338;12.524;2023-05-29T08:45:16;8.43;;;3.75;;
21862;SDS011;11096;51.338;12.524;2023-05-29T08:47:43;6.47;;;2.80;;
21862;SDS011;11096;51.338;12.524;2023-05-29T08:50:11;7.13;;;2.97;;
21862;SDS011;11096;51.338;12.524;2023-05-29T08:52:39;8.02;;;3.35;;
21862;SDS011;11096;51.338;12.524;2023-05-29T08:55:06;5.45;;;3.03;;
21862;SDS011;11096;51.338;12.524;2023-05-29T08:57:31;6.47;;;3.05;;
21862;SDS011;11096;51.338;12.524;2023-05-29T08:59:57;6.28;;;3.03;;
21862;SDS011;11096;51.338;12.524;2023-05-29T09:02:24;10.63;;;3.80;;
21862;SDS011;11096;51.338;12.524;2023-05-29T09:04:49;9.35;;;3.42;;
21862;SDS011;11096;51.338;12.524;2023-05-29T09:07:17;4.85;;;2.67;;
21862;SDS011;11096;51.338;12.524;2023-05-29T09:09:47;6.10;;;3.03;;
21862;SDS011;11096;51.338;12.524;2023-05-29T09:12:13;8.05;;;3.22;;
21862;SDS011;11096;51.338;12.524;2023-05-29T09:14:42;5.03;;;2.67;;
21862;SDS011;11096;51.338;12.524;2023-05-29T09:17:09;11.88;;;2.90;;
21862;SDS011;11096;51.338;12.524;2023-05-29T09:19:35;7.03;;;2.90;;
21862;SDS011;11096;51.338;12.524;2023-05-29T09:22:03;7.45;;;2.88;;
21862;SDS011;11096;51.338;12.524;2023-05-29T09:24:34;6.20;;;3.28;;
21862;SDS011;11096;51.338;12.524;2023-05-29T09:27:07;7.78;;;3.08;;
21862;SDS011;11096;51.338;12.524;2023-05-29T09:29:37;4.45;;;2.72;;
21862;SDS011;11096;51.338;12.524;2023-05-29T09:32:07;6.85;;;2.70;;
21862;SDS011;11096;51.338;12.524;2023-05-29T09:34:33;8.45;;;3.38;;
21862;SDS011;11096;51.338;12.524;2023-05-29T09:37:03;5.95;;;3.10;;
21862;SDS011;11096;51.338;12.524;2023-05-29T09:39:46;5.35;;;3.22;;
21862;SDS011;11096;51.338;12.524;2023-05-29T09:42:15;8.18;;;3.10;;
21862;SDS011;11096;51.338;12.524;2023-05-29T09:44:41;6.80;;;3.22;;
21862;SDS011;11096;51.338;12.524;2023-05-29T09:47:08;5.78;;;2.95;;
21862;SDS011;11096;51.338;12.524;2023-05-29T09:49:34;9.75;;;2.90;;
21862;SDS011;11096;51.338;12.524;2023-05-29T09:52:01;6.80;;;2.63;;
21862;SDS011;11096;51.338;12.524;2023-05-29T09:54:27;5.70;;;2.83;;
21862;SDS011;11096;51.338;12.524;2023-05-29T09:56:56;4.53;;;2.38;;
21862;SDS011;11096;51.338;12.524;2023-05-29T09:59:23;7.13;;;2.67;;
21862;SDS011;11096;51.338;12.524;2023-05-29T10:01:49;7.30;;;3.20;;
21862;SDS011;11096;51.338;12.524;2023-05-29T10:04:26;5.30;;;2.60;;
21862;SDS011;11096;51.338;12.524;2023-05-29T10:06:52;6.30;;;2.88;;
21862;SDS011;11096;51.338;12.524;2023-05-29T10:09:21;5.20;;;2.30;;
21862;SDS011;11096;51.338;12.524;2023-05-29T10:11:50;7.20;;;2.90;;
21862;SDS011;11096;51.338;12.524;2023-05-29T10:14:20;7.47;;;2.92;;
21862;SDS011;11096;51.338;12.524;2023-05-29T10:16:49;6.45;;;2.38;;
21862;SDS011;11096;51.338;12.524;2023-05-29T10:19:18;4.68;;;2.75;;
21862;SDS011;11096;51.338;12.524;2023-05-29T10:21:48;6.43;;;2.60;;
21862;SDS011;11096;51.338;12.524;2023-05-29T10:24:14;7.13;;;2.38;;
21862;SDS011;11096;51.338;12.524;2023-05-29T10:26:40;7.00;;;2.42;;
21862;SDS011;11096;51.338;12.524;2023-05-29T10:29:12;6.63;;;2.30;;
21862;SDS011;11096;51.338;12.524;2023-05-29T10:34:44;5.75;;;2.72;;
21862;SDS011;11096;51.338;12.524;2023-05-29T10:39:51;6.20;;;2.63;;
21862;SDS011;11096;51.338;12.524;2023-05-29T10:45:03;3.40;;;2.20;;
21862;SDS011;11096;51.338;12.524;2023-05-29T10:47:30;6.10;;;2.50;;
21862;SDS011;11096;51.338;12.524;2023-05-29T10:49:59;4.80;;;2.50;;
21862;SDS011;11096;51.338;12.524;2023-05-29T10:52:25;6.18;;;2.42;;
21862;SDS011;11096;51.338;12.524;2023-05-29T10:54:52;5.97;;;2.42;;
21862;SDS011;11096;51.338;12.524;2023-05-29T10:57:20;5.32;;;2.47;;
21862;SDS011;11096;51.338;12.524;2023-05-29T10:59:47;6.25;;;2.92;;
21862;SDS011;11096;51.338;12.524;2023-05-29T11:02:17;4.57;;;2.25;;
21862;SDS011;11096;51.338;12.524;2023-05-29T11:04:43;6.53;;;2.60;;
21862;SDS011;11096;51.338;12.524;2023-05-29T11:07:31;7.57;;;2.60;;
21862;SDS011;11096;51.338;12.524;2023-05-29T11:09:58;5.93;;;2.50;;
21862;SDS011;11096;51.338;12.524;2023-05-29T11:12:37;4.82;;;2.47;;
21862;SDS011;11096;51.338;12.524;2023-05-29T11:15:20;4.15;;;2.30;;
21862;SDS011;11096;51.338;12.524;2023-05-29T11:17:46;3.78;;;2.33;;
21862;SDS011;11096;51.338;12.524;2023-05-29T11:25:24;5.60;;;2.50;;
21862;SDS011;11096;51.338;12.524;2023-05-29T11:27:50;5.05;;;2.67;;
21862;SDS011;11096;51.338;12.524;2023-05-29T11:30:19;5.28;;;2.58;;
21862;SDS011;11096;51.338;12.524;2023-05-29T11:32:46;6.30;;;2.47;;
21862;SDS011;11096;51.338;12.524;2023-05-29T11:35:12;5.28;;;2.30;;
21862;SDS011;11096;51.338;12.524;2023-05-29T11:37:39;5.07;;;2.03;;
21862;SDS011;11096;51.338;12.524;2023-05-29T11:40:11;4.70;;;2.20;;
21862;SDS011;11096;51.338;12.524;2023-05-29T11:42:45;6.57;;;2.20;;
21862;SDS011;11096;51.338;12.524;2023-05-29T11:45:18;4.95;;;2.25;;
21862;SDS011;11096;51.338;12.524;2023-05-29T11:47:55;4.10;;;2.10;;
21862;SDS011;11096;51.338;12.524;2023-05-29T11:50:22;3.65;;;2.38;;
21862;SDS011;11096;51.338;12.524;2023-05-29T11:52:52;6.50;;;2.67;;
21862;SDS011;11096;51.338;12.524;2023-05-29T11:55:21;4.88;;;2.83;;
21862;SDS011;11096;51.338;12.524;2023-05-29T11:57:48;6.60;;;2.10;;
21862;SDS011;11096;51.338;12.524;2023-05-29T12:00:15;5.85;;;2.20;;
21862;SDS011;11096;51.338;12.524;2023-05-29T12:02:42;4.47;;;2.35;;
21862;SDS011;11096;51.338;12.524;2023-05-29T12:05:08;5.85;;;2.45;;
21862;SDS011;11096;51.338;12.524;2023-05-29T12:07:37;3.25;;;2.10;;
21862;SDS011;11096;51.338;12.524;2023-05-29T12:10:12;6.72;;;2.35;;
21862;SDS011;11096;51.338;12.524;2023-05-29T12:12:39;5.13;;;2.22;;
21862;SDS011;11096;51.338;12.524;2023-05-29T12:15:05;5.05;;;2.45;;
21862;SDS011;11096;51.338;12.524;2023-05-29T12:17:32;4.95;;;2.20;;
21862;SDS011;11096;51.338;12.524;2023-05-29T12:19:58;4.03;;;2.38;;
21862;SDS011;11096;51.338;12.524;2023-05-29T12:22:32;4.05;;;2.53;;
21862;SDS011;11096;51.338;12.524;2023-05-29T12:25:06;5.78;;;2.60;;
21862;SDS011;11096;51.338;12.524;2023-05-29T12:27:33;3.85;;;2.30;;
21862;SDS011;11096;51.338;12.524;2023-05-29T12:30:07;8.43;;;2.30;;
21862;SDS011;11096;51.338;12.524;2023-05-29T12:32:39;3.50;;;1.83;;
21862;SDS011;11096;51.338;12.524;2023-05-29T12:35:13;4.47;;;2.42;;
21862;SDS011;11096;51.338;12.524;2023-05-29T12:37:45;6.72;;;2.53;;
21862;SDS011;11096;51.338;12.524;2023-05-29T12:40:21;4.80;;;2.40;;
21862;SDS011;11096;51.338;12.524;2023-05-29T12:42:49;5.15;;;2.28;;
21862;SDS011;11096;51.338;12.524;2023-05-29T12:45:18;3.88;;;2.42;;
21862;SDS011;11096;51.338;12.524;2023-05-29T12:47:53;6.70;;;3.10;;
21862;SDS011;11096;51.338;12.524;2023-05-29T12:50:24;5.03;;;2.25;;
21862;SDS011;11096;51.338;12.524;2023-05-29T12:53:02;4.68;;;2.53;;
21862;SDS011;11096;51.338;12.524;2023-05-29T12:55:33;6.72;;;3.03;;
21862;SDS011;11096;51.338;12.524;2023-05-29T12:58:10;6.93;;;2.60;;
21862;SDS011;11096;51.338;12.524;2023-05-29T13:00:40;5.45;;;2.60;;
21862;SDS011;11096;51.338;12.524;2023-05-29T13:03:07;5.00;;;2.63;;
21862;SDS011;11096;51.338;12.524;2023-05-29T13:05:33;5.32;;;2.53;;
21862;SDS011;11096;51.338;12.524;2023-05-29T13:08:00;4.35;;;2.45;;
21862;SDS011;11096;51.338;12.524;2023-05-29T13:10:26;5.75;;;2.50;;
21862;SDS011;11096;51.338;12.524;2023-05-29T13:12:53;5.65;;;2.40;;
21862;SDS011;11096;51.338;12.524;2023-05-29T13:15:20;4.45;;;2.45;;
21862;SDS011;11096;51.338;12.524;2023-05-29T13:17:47;4.32;;;2.47;;
21862;SDS011;11096;51.338;12.524;2023-05-29T13:20:13;9.35;;;3.00;;
21862;SDS011;11096;51.338;12.524;2023-05-29T13:22:40;6.47;;;2.58;;
21862;SDS011;11096;51.338;12.524;2023-05-29T13:25:07;7.53;;;3.13;;
21862;SDS011;11096;51.338;12.524;2023-05-29T13:27:34;5.43;;;2.58;;
21862;SDS011;11096;51.338;12.524;2023-05-29T13:30:01;9.90;;;3.20;;
21862;SDS011;11096;51.338;12.524;2023-05-29T13:32:27;6.65;;;2.50;;
21862;SDS011;11096;51.338;12.524;2023-05-29T13:34:52;5.75;;;2.97;;
21862;SDS011;11096;51.338;12.524;2023-05-29T13:37:17;5.35;;;2.78;;
21862;SDS011;11096;51.338;12.524;2023-05-29T13:39:43;5.95;;;2.13;;
21862;SDS011;11096;51.338;12.524;2023-05-29T13:42:08;5.40;;;2.70;;
21862;SDS011;11096;51.338;12.524;2023-05-29T13:44:33;6.35;;;2.67;;
21862;SDS011;11096;51.338;12.524;2023-05-29T13:46:59;7.53;;;3.13;;
21862;SDS011;11096;51.338;12.524;2023-05-29T13:49:25;5.00;;;2.67;;
21862;SDS011;11096;51.338;12.524;2023-05-29T13:51:51;6.25;;;2.58;;
21862;SDS011;11096;51.338;12.524;2023-05-29T13:54:16;4.20;;;2.90;;
21862;SDS011;11096;51.338;12.524;2023-05-29T13:56:45;4.85;;;2.67;;
21862;SDS011;11096;51.338;12.524;2023-05-29T13:59:10;5.32;;;2.80;;
21862;SDS011;11096;51.338;12.524;2023-05-29T14:01:35;8.73;;;2.47;;
21862;SDS011;11096;51.338;12.524;2023-05-29T14:04:01;6.30;;;2.63;;
21862;SDS011;11096;51.338;12.524;2023-05-29T14:06:26;3.47;;;2.53;;
21862;SDS011;11096;51.338;12.524;2023-05-29T14:08:52;5.78;;;2.50;;
21862;SDS011;11096;51.338;12.524;2023-05-29T14:11:18;3.28;;;2.28;;
21862;SDS011;11096;51.338;12.524;2023-05-29T14:13:45;5.15;;;2.63;;
21862;SDS011;11096;51.338;12.524;2023-05-29T14:16:10;5.70;;;2.42;;
21862;SDS011;11096;51.338;12.524;2023-05-29T14:18:36;5.38;;;2.50;;
21862;SDS011;11096;51.338;12.524;2023-05-29T14:21:01;5.60;;;3.10;;
21862;SDS011;11096;51.338;12.524;2023-05-29T14:23:27;6.68;;;2.75;;
21862;SDS011;11096;51.338;12.524;2023-05-29T14:25:52;6.90;;;2.65;;
21862;SDS011;11096;51.338;12.524;2023-05-29T14:28:18;5.07;;;2.38;;
21862;SDS011;11096;51.338;12.524;2023-05-29T14:30:43;5.47;;;2.45;;
21862;SDS011;11096;51.338;12.524;2023-05-29T14:33:09;7.00;;;2.40;;
21862;SDS011;11096;51.338;12.524;2023-05-29T14:35:34;4.25;;;2.50;;
21862;SDS011;11096;51.338;12.524;2023-05-29T14:38:00;8.57;;;2.58;;
21862;SDS011;11096;51.338;12.524;2023-05-29T14:40:25;9.45;;;2.47;;
21862;SDS011;11096;51.338;12.524;2023-05-29T14:42:51;4.50;;;2.15;;
21862;SDS011;11096;51.338;12.524;2023-05-29T14:45:16;4.95;;;2.35;;
21862;SDS011;11096;51.338;12.524;2023-05-29T14:47:42;4.90;;;2.65;;
21862;SDS011;11096;51.338;12.524;2023-05-29T14:50:08;3.92;;;2.75;;
21862;SDS011;11096;51.338;12.524;2023-05-29T14:52:33;6.05;;;2.65;;
21862;SDS011;11096;51.338;12.524;2023-05-29T14:55:02;4.55;;;3.10;;
21862;SDS011;11096;51.338;12.524;2023-05-29T14:57:29;5.20;;;2.55;;
21862;SDS011;11096;51.338;12.524;2023-05-29T14:59:57;9.35;;;2.72;;
21862;SDS011;11096;51.338;12.524;2023-05-29T15:02:23;4.00;;;2.33;;